Guaynabo, PR (00966)

6:39 PM AST on August 20, 2014 (GMT -0400)
Reparto Metropolitano | Change Station
CLOSE
Current Station
Personal Weather Station
Location: San Juan, PR
Elevation: 36 ft
Nearby Weather Stations

Elev 36 ft 18.40 °N, 66.08 °W | Updated 2 minutes ago

Scattered Clouds
Scattered Clouds
83.8 °F
Feels Like 81 °F
N
0.0
Wind Variable Wind from SE
Gusts 8.0 mph

Today
High -- | Low -- °F
--% Chance of Precip.
Yesterday
High -- | Low -- °F
Precip. -- in
6:07 AM 6:47 PM
Waning Crescent, 18% visible
Pressure 30.00 in
Visibility 10.0 miles
Clouds Scattered Clouds 2300 ft
Scattered Clouds 4400 ft
Scattered Clouds 10000 ft
Heat Index 81 °F
Dew Point Not available.
Humidity Not available.
Rainfall 0.68 in
Snow Depth Not available.
UV 0.0 out of 12
Pollen Not available.
Air Quality Not available.
Flu Activity Not available.
METAR TJSJ 202156Z 10008KT 10SM SCT023 SCT044 SCT100 28/25 A3000 RMK AO2 RAB43E56 SLP158 VCSH SE S W P0000 T02830250

More Conditions Fewer Conditions

Pressure 30.00 in
Visibility 10.0 miles
Clouds Scattered Clouds 2300 ft
Scattered Clouds 4400 ft
Scattered Clouds 10000 ft
Heat Index 81 °F
Dew Point Not available.
Humidity Not available.
Rainfall 0.68 in
Snow Depth Not available.
UV 0.0 out of 12
Pollen Not available.
Air Quality Not available.
Flu Activity Not available.
METAR TJSJ 202156Z 10008KT 10SM SCT023 SCT044 SCT100 28/25 A3000 RMK AO2 RAB43E56 SLP158 VCSH SE S W P0000 T02830250

More Conditions Fewer Conditions

10-Day Weather Forecast

Almanac

Astronomy

Aug. 20, 2014 Rise Set
Actual Time 6:07 AM AST 6:47 PM AST
Civil Twilight 5:45 AM AST 7:10 PM AST
Nautical Twilight 5:18 AM AST 7:36 PM AST
Astronomical Twilight 4:51 AM AST 8:03 PM AST
Moon 1:59 AM AST 3:15 PM AST
Length of Visible Light 13h 25m
Length of Day
12h 40m
Tomorrow will be 0m 57s shorter.
Waning Crescent, 18% of the Moon is Illuminated
Today
Waning Crescent
Aug 25
New
Sep 2
First Quarter
Sep 8
Full
Sep 15
Last Quarter

Community

WunderPhotos

Upload Photos

1,745,780 photos uploaded!

Nearby

Snow Depth

Station Depth Elevation
No new snow has been reported.

Earthquake Activity

City Distance Mag. Time & Date
No recent earthquake activity has been reported nearby.
Minimum magnitude displayed is 2.5.

Coastal Water Temperatures

Place Temperature
San Juan, PR 86.0 °F
Mayaguez, PR 86.0 °F
Esperanza, PR 84.9 °F

Nearby Weather Stations